Terminal Aerodrome Forecast
Issued by NWS Jackson, MS

Home | Current Version | Previous Version | Text Only | Print | Product List | Glossary On
Versions: 1 2 3 4 5 6 7 8 9 10 11 12 13 14 15
000
FTUS44 KJAN 290500
TAFGWO
TAF
KGWO 290520Z 2906/3006 17008KT P6SM SKC
     FM290900 18009KT P6SM BKN020
     FM291600 20015G25KT P6SM BKN015
     FM291900 21015G25KT P6SM BKN030
     FM300100 22012KT P6SM BKN020=

USA.gov is the U.S. government's official web portal to all federal, state and local government web resources and services.